createdAt,value
2023-01-10T00:00:37.510Z,6.13
2023-01-10T00:03:08.163Z,6.04
2023-01-10T00:05:36.055Z,6.04
2023-01-10T00:08:03.534Z,6.01
2023-01-10T00:10:30.961Z,5.99
2023-01-10T00:13:17.180Z,6.02
2023-01-10T00:15:43.770Z,6.04
2023-01-10T00:18:10.550Z,6.07
2023-01-10T00:20:36.920Z,6.07
2023-01-10T00:23:03.719Z,6.07
2023-01-10T00:25:30.551Z,6.06
2023-01-10T00:28:10.700Z,6.06
2023-01-10T00:30:40.645Z,6.03
2023-01-10T00:33:08.428Z,6.05
2023-01-10T00:35:35.004Z,6.10
2023-01-10T00:38:05.581Z,6.12
2023-01-10T00:40:32.863Z,6.14
2023-01-10T00:43:18.651Z,6.14
2023-01-10T00:45:46.408Z,6.14
2023-01-10T00:48:14.415Z,6.15
2023-01-10T00:50:40.813Z,6.15
2023-01-10T00:53:07.854Z,6.15
2023-01-10T00:55:35.718Z,6.16
2023-01-10T00:58:02.696Z,6.16
2023-01-10T01:00:29.123Z,6.17
2023-01-10T01:02:55.693Z,6.18
2023-01-10T01:05:22.442Z,6.18
2023-01-10T01:07:52.536Z,6.23
2023-01-10T01:10:28.134Z,6.23
2023-01-10T01:13:00.311Z,6.25
2023-01-10T01:15:27.726Z,6.23
2023-01-10T01:17:55.423Z,6.19
2023-01-10T01:20:21.950Z,6.19
2023-01-10T01:22:48.479Z,6.19
2023-01-10T01:25:15.264Z,6.16
2023-01-10T01:27:41.818Z,6.15
2023-01-10T01:30:09.788Z,6.15
2023-01-10T01:32:36.387Z,6.15
2023-01-10T01:35:03.025Z,6.17
2023-01-10T01:37:29.477Z,6.16
2023-01-10T01:39:55.811Z,6.18
2023-01-10T01:42:33.816Z,6.19
2023-01-10T01:45:09.224Z,6.18
2023-01-10T01:47:49.972Z,6.19
2023-01-10T01:50:21.680Z,6.14
2023-01-10T01:52:50.580Z,6.18
2023-01-10T01:55:17.144Z,6.18
2023-01-10T01:57:46.632Z,6.21
2023-01-10T02:00:14.367Z,6.18
2023-01-10T02:03:01.835Z,6.19
2023-01-10T02:05:32.300Z,6.16
2023-01-10T02:08:01.986Z,6.13
2023-01-10T02:10:55.749Z,6.15
2023-01-10T02:13:25.473Z,6.17
2023-01-10T02:15:51.950Z,6.17
2023-01-10T02:18:19.100Z,6.17
2023-01-10T02:21:17.725Z,6.17
2023-01-10T02:24:09.245Z,6.21
2023-01-10T02:26:50.745Z,6.18
2023-01-10T02:29:59.282Z,6.18
2023-01-10T02:33:00.294Z,6.20
2023-01-10T02:35:55.066Z,6.23
2023-01-10T02:38:43.293Z,6.25
2023-01-10T02:41:19.776Z,6.27
2023-01-10T02:43:53.099Z,6.26
2023-01-10T02:46:28.447Z,6.26
2023-01-10T02:48:55.629Z,6.27
2023-01-10T02:51:24.462Z,6.28
2023-01-10T02:54:09.043Z,6.32
2023-01-10T02:57:06.403Z,6.31
2023-01-10T02:59:41.553Z,6.31
2023-01-10T03:02:24.701Z,6.33
2023-01-10T03:05:12.765Z,6.34
2023-01-10T03:07:46.240Z,6.34
2023-01-10T03:10:18.586Z,6.36
2023-01-10T03:12:53.398Z,6.35
2023-01-10T03:15:21.725Z,6.34
2023-01-10T03:17:53.419Z,6.32
2023-01-10T03:20:22.616Z,6.32
2023-01-10T03:22:51.831Z,6.31
2023-01-10T03:25:23.223Z,6.31
2023-01-10T03:28:04.735Z,6.31
2023-01-10T03:30:58.485Z,6.32
2023-01-10T03:33:27.909Z,6.33
2023-01-10T03:36:02.873Z,6.34
2023-01-10T03:38:43.477Z,6.35
2023-01-10T03:41:16.910Z,6.35
2023-01-10T03:44:07.436Z,6.36
2023-01-10T03:47:06.086Z,6.38
2023-01-10T03:49:35.575Z,6.39
2023-01-10T03:52:02.389Z,6.39
2023-01-10T03:54:28.931Z,6.38
2023-01-10T03:56:55.338Z,6.32
2023-01-10T03:59:25.552Z,6.34
2023-01-10T04:01:53.024Z,6.34
2023-01-10T04:04:19.621Z,6.33
2023-01-10T04:06:46.203Z,6.32
2023-01-10T04:09:12.881Z,6.29
2023-01-10T04:11:39.358Z,6.26
2023-01-10T04:14:05.941Z,6.24
2023-01-10T04:16:32.553Z,6.24
2023-01-10T04:18:58.920Z,6.28
2023-01-10T04:21:25.239Z,6.28
2023-01-10T04:23:51.618Z,6.30
2023-01-10T04:26:17.984Z,6.30
2023-01-10T04:28:44.373Z,6.31
2023-01-10T04:31:10.830Z,6.31
2023-01-10T04:33:39.002Z,6.30
2023-01-10T04:36:05.576Z,6.29
2023-01-10T04:38:32.042Z,6.27
2023-01-10T04:40:58.468Z,6.22
2023-01-10T04:43:25.112Z,6.23
2023-01-10T04:45:51.873Z,6.23
2023-01-10T04:48:18.585Z,6.21
2023-01-10T04:50:52.125Z,6.20
2023-01-10T04:53:19.131Z,6.18
2023-01-10T04:55:46.146Z,6.16
2023-01-10T04:58:12.810Z,6.13
2023-01-10T05:00:39.444Z,6.11
2023-01-10T05:03:06.057Z,6.13
2023-01-10T05:05:32.540Z,6.12
2023-01-10T05:07:58.938Z,6.12
2023-01-10T05:10:25.450Z,6.09
2023-01-10T05:12:51.876Z,6.09
2023-01-10T05:15:18.366Z,6.08
2023-01-10T05:17:44.825Z,6.06
2023-01-10T05:20:13.406Z,6.02
2023-01-10T05:22:39.858Z,6.02
2023-01-10T05:25:06.795Z,6.02
2023-01-10T05:27:33.233Z,6.00
2023-01-10T05:29:59.631Z,5.99
2023-01-10T05:32:29.477Z,5.98
2023-01-10T05:34:56.036Z,5.96
2023-01-10T05:37:22.437Z,5.93
2023-01-10T05:39:48.756Z,5.97
2023-01-10T05:42:15.073Z,5.99
2023-01-10T05:44:41.449Z,5.96
2023-01-10T05:47:07.886Z,5.97
2023-01-10T05:49:34.383Z,5.99
2023-01-10T05:52:00.740Z,5.98
2023-01-10T05:54:27.068Z,5.96
2023-01-10T05:56:53.503Z,5.97
2023-01-10T05:59:28.046Z,5.94
2023-01-10T06:01:55.061Z,5.94
2023-01-10T06:04:21.472Z,5.96
2023-01-10T06:06:47.836Z,5.98
2023-01-10T06:09:14.159Z,6.00
2023-01-10T06:11:40.528Z,5.97
2023-01-10T06:14:07.742Z,5.99
2023-01-10T06:16:34.103Z,6.00
2023-01-10T06:19:00.442Z,6.01
2023-01-10T06:21:26.828Z,6.00
2023-01-10T06:23:53.241Z,6.04
2023-01-10T06:26:19.705Z,6.03
2023-01-10T06:28:46.215Z,6.02
2023-01-10T06:31:14.906Z,6.03
2023-01-10T06:33:41.545Z,6.04
2023-01-10T06:36:08.357Z,6.08
2023-01-10T06:38:34.758Z,6.10
2023-01-10T06:41:12.738Z,6.10
2023-01-10T06:43:45.292Z,6.10
2023-01-10T06:46:17.174Z,6.09
2023-01-10T06:48:45.458Z,6.10
2023-01-10T06:51:13.449Z,6.11
2023-01-10T06:53:39.824Z,6.11
2023-01-10T06:56:06.978Z,6.13
2023-01-10T06:58:34.798Z,6.12
2023-01-10T07:01:01.253Z,6.15
2023-01-10T07:03:27.694Z,6.12
2023-01-10T07:05:54.077Z,6.10
2023-01-10T07:08:20.527Z,6.09
2023-01-10T07:10:46.898Z,6.07
2023-01-10T07:13:13.240Z,6.07
2023-01-10T07:15:39.689Z,6.08
2023-01-10T07:18:06.148Z,6.08
2023-01-10T07:20:32.569Z,6.11
2023-01-10T07:23:00.583Z,6.10
2023-01-10T07:25:28.631Z,6.12
2023-01-10T07:27:58.239Z,6.11
2023-01-10T07:30:25.944Z,6.12
2023-01-10T07:32:56.828Z,6.12
2023-01-10T07:35:24.008Z,6.13
2023-01-10T07:37:50.376Z,6.15
2023-01-10T07:40:17.185Z,6.15
2023-01-10T07:42:43.599Z,6.14
2023-01-10T07:45:10.544Z,6.16
2023-01-10T07:47:37.097Z,6.18
2023-01-10T07:50:03.685Z,6.17
2023-01-10T07:52:30.068Z,6.17
2023-01-10T07:54:56.680Z,6.15
2023-01-10T07:57:23.180Z,6.15
2023-01-10T07:59:49.584Z,6.08
2023-01-10T08:02:16.064Z,6.08
2023-01-10T08:04:42.502Z,6.07
2023-01-10T08:07:08.839Z,6.07
2023-01-10T08:09:35.173Z,6.06
2023-01-10T08:12:01.582Z,6.05
2023-01-10T08:14:28.069Z,6.01
2023-01-10T08:16:54.449Z,5.97
2023-01-10T08:19:20.836Z,5.97
2023-01-10T08:21:47.401Z,5.98
2023-01-10T08:24:13.775Z,5.98
2023-01-10T08:26:40.217Z,5.99
2023-01-10T08:29:06.536Z,6.00
2023-01-10T08:31:32.909Z,5.99
2023-01-10T08:33:59.327Z,6.00
2023-01-10T08:36:25.818Z,6.01
2023-01-10T08:38:55.474Z,6.04
2023-01-10T08:41:21.836Z,6.08
2023-01-10T08:43:51.248Z,6.09
2023-01-10T08:46:18.854Z,6.06
2023-01-10T08:48:45.296Z,6.06
2023-01-10T08:51:11.855Z,6.01
2023-01-10T08:53:41.043Z,5.99
2023-01-10T08:56:08.492Z,5.94
2023-01-10T08:58:35.164Z,5.96
2023-01-10T09:01:06.764Z,5.99
2023-01-10T09:03:33.422Z,5.98
2023-01-10T09:06:00.674Z,5.98
2023-01-10T09:08:27.200Z,6.01
2023-01-10T09:10:54.076Z,6.00
2023-01-10T09:13:20.483Z,6.01
2023-01-10T09:15:46.913Z,6.01
2023-01-10T09:18:14.269Z,6.01
2023-01-10T09:20:41.383Z,6.01
2023-01-10T09:23:17.460Z,5.99
2023-01-10T09:25:44.792Z,6.01
2023-01-10T09:28:11.343Z,5.99
2023-01-10T09:30:37.900Z,6.00
2023-01-10T09:33:05.077Z,6.02
2023-01-10T09:35:32.599Z,6.01
2023-01-10T09:38:03.555Z,6.04
2023-01-10T09:41:01.225Z,6.07
2023-01-10T09:43:49.127Z,6.07
2023-01-10T09:46:43.589Z,6.10
2023-01-10T09:49:35.001Z,6.09
2023-01-10T09:52:08.540Z,6.10
2023-01-10T09:54:42.438Z,6.12
2023-01-10T09:57:17.591Z,6.13
2023-01-10T09:59:45.786Z,6.13
2023-01-10T10:02:34.284Z,6.15
2023-01-10T10:05:24.377Z,6.12
2023-01-10T10:07:54.780Z,6.09
2023-01-10T10:10:26.396Z,6.08
2023-01-10T10:13:26.444Z,6.06
2023-01-10T10:16:14.209Z,6.12
2023-01-10T10:18:47.897Z,6.10
2023-01-10T10:21:28.330Z,6.13
2023-01-10T10:24:04.945Z,6.11
2023-01-10T10:26:40.079Z,6.12
2023-01-10T10:29:13.973Z,6.15
2023-01-10T10:32:04.982Z,6.15
2023-01-10T10:34:41.769Z,6.15
2023-01-10T10:37:17.540Z,6.15
2023-01-10T10:39:52.912Z,6.16
2023-01-10T10:42:19.791Z,6.14
2023-01-10T10:44:50.315Z,6.15
2023-01-10T10:47:20.112Z,6.15
2023-01-10T10:49:59.712Z,6.12
2023-01-10T10:52:32.262Z,6.10
2023-01-10T10:54:58.984Z,6.10
2023-01-10T10:57:28.714Z,6.11
2023-01-10T10:59:56.509Z,6.11
2023-01-10T11:02:28.448Z,6.09
2023-01-10T11:04:59.637Z,6.10
2023-01-10T11:07:29.918Z,6.14
2023-01-10T11:10:00.735Z,6.10
2023-01-10T11:12:35.292Z,6.09
2023-01-10T11:15:02.944Z,6.04
2023-01-10T11:17:33.698Z,6.04
2023-01-10T11:20:20.555Z,6.03
2023-01-10T11:22:50.621Z,6.06
2023-01-10T11:25:22.790Z,6.10
2023-01-10T11:27:56.610Z,6.08
2023-01-10T11:30:27.244Z,6.08
2023-01-10T11:33:14.532Z,6.07
2023-01-10T11:36:00.601Z,6.07
2023-01-10T11:38:30.015Z,6.06
2023-01-10T11:40:57.736Z,6.10
2023-01-10T11:43:37.300Z,6.12
2023-01-10T11:46:22.894Z,6.12
2023-01-10T11:49:07.157Z,6.12
2023-01-10T11:51:45.512Z,6.13
2023-01-10T11:54:17.358Z,6.17
2023-01-10T11:56:55.736Z,6.18
2023-01-10T11:59:22.985Z,6.18
2023-01-10T12:02:11.074Z,6.20
2023-01-10T12:04:43.086Z,6.22
2023-01-10T12:07:11.586Z,6.22
2023-01-10T12:09:41.058Z,6.24
2023-01-10T12:12:16.693Z,6.27
2023-01-10T12:14:43.377Z,6.26
2023-01-10T12:17:25.156Z,6.26
2023-01-10T12:19:58.407Z,6.27
2023-01-10T12:22:35.709Z,6.29
2023-01-10T12:25:06.494Z,6.30
2023-01-10T12:27:33.173Z,6.28
2023-01-10T12:30:11.144Z,6.30
2023-01-10T12:32:49.351Z,6.32
2023-01-10T12:35:20.875Z,6.34
2023-01-10T12:37:56.032Z,6.35
2023-01-10T12:40:29.279Z,6.36
2023-01-10T12:43:21.105Z,6.36
2023-01-10T12:45:53.188Z,6.35
2023-01-10T12:48:30.536Z,6.38
2023-01-10T12:51:04.665Z,6.39
2023-01-10T12:53:39.952Z,6.39
2023-01-10T12:56:13.476Z,6.39
2023-01-10T12:59:03.908Z,6.41
2023-01-10T13:01:35.397Z,6.42
2023-01-10T13:04:06.797Z,6.44
2023-01-10T13:06:36.016Z,6.44
2023-01-10T13:09:08.983Z,6.44
2023-01-10T13:12:18.181Z,6.45
2023-01-10T13:14:59.726Z,6.45
2023-01-10T13:17:32.248Z,6.45
2023-01-10T13:20:16.897Z,6.47
2023-01-10T13:22:55.560Z,6.48
2023-01-10T13:25:32.094Z,6.48
2023-01-10T13:28:22.631Z,6.50
2023-01-10T13:31:01.654Z,6.50
2023-01-10T13:33:35.940Z,6.52
2023-01-10T13:36:10.617Z,6.53
2023-01-10T13:38:45.518Z,6.53
2023-01-10T13:41:31.920Z,6.54
2023-01-10T13:44:08.835Z,6.55
2023-01-10T13:46:43.171Z,6.56
2023-01-10T13:49:09.451Z,6.57
2023-01-10T13:51:36.825Z,6.59
2023-01-10T13:54:25.227Z,6.59
2023-01-10T13:56:51.600Z,6.60
2023-01-10T13:59:45.819Z,6.60
2023-01-10T14:02:31.360Z,6.62
2023-01-10T14:05:15.071Z,6.63
2023-01-10T14:07:45.860Z,6.63
2023-01-10T14:10:38.862Z,6.65
2023-01-10T14:13:11.040Z,6.66
2023-01-10T14:15:46.093Z,6.67
2023-01-10T14:18:28.628Z,6.67
2023-01-10T14:21:07.229Z,6.67
2023-01-10T14:23:41.044Z,6.66
2023-01-10T14:26:16.116Z,6.65
2023-01-10T14:28:42.833Z,6.64
2023-01-10T14:31:18.553Z,6.62
2023-01-10T14:33:46.622Z,6.61
2023-01-10T14:36:22.458Z,6.60
2023-01-10T14:38:51.404Z,6.59
2023-01-10T14:41:22.956Z,6.57
2023-01-10T14:44:02.497Z,6.57
2023-01-10T14:46:41.621Z,6.55
2023-01-10T14:49:25.481Z,6.55
2023-01-10T14:51:52.999Z,6.54
2023-01-10T14:54:23.329Z,6.52
2023-01-10T14:56:52.149Z,6.53
2023-01-10T14:59:21.533Z,6.51
2023-01-10T15:01:50.558Z,6.52
2023-01-10T15:04:19.759Z,6.51
2023-01-10T15:06:51.981Z,6.50
2023-01-10T15:09:18.555Z,6.50
2023-01-10T15:11:47.178Z,6.49
2023-01-10T15:14:17.636Z,6.48
2023-01-10T15:16:46.516Z,6.48
2023-01-10T15:19:19.721Z,6.47
2023-01-10T15:21:47.247Z,6.45
2023-01-10T15:24:42.998Z,6.42
2023-01-10T15:27:15.348Z,6.41
2023-01-10T15:29:44.641Z,6.38
2023-01-10T15:32:20.963Z,6.38
2023-01-10T15:34:54.167Z,6.40
2023-01-10T15:37:35.117Z,6.37
2023-01-10T15:40:03.929Z,6.35
2023-01-10T15:42:31.611Z,6.34
2023-01-10T15:45:16.646Z,6.33
2023-01-10T15:47:49.090Z,6.32
2023-01-10T15:50:28.882Z,6.30
2023-01-10T15:52:57.989Z,6.31
2023-01-10T15:55:46.183Z,6.31
2023-01-10T15:58:21.726Z,6.30
2023-01-10T16:00:51.066Z,6.31
2023-01-10T16:03:34.670Z,6.31
2023-01-10T16:06:02.114Z,6.29
2023-01-10T16:08:35.275Z,6.29
2023-01-10T16:11:07.768Z,6.28
2023-01-10T16:13:36.596Z,6.28
2023-01-10T16:16:08.313Z,6.28
2023-01-10T16:18:34.722Z,6.27
2023-01-10T16:21:03.055Z,6.23
2023-01-10T16:23:33.101Z,6.22
2023-01-10T16:26:03.066Z,6.22
2023-01-10T16:28:33.011Z,6.21
2023-01-10T16:30:59.445Z,6.20
2023-01-10T16:33:27.599Z,6.21
2023-01-10T16:35:56.667Z,6.21
2023-01-10T16:38:24.654Z,6.19
2023-01-10T16:41:25.697Z,6.18
2023-01-10T16:43:52.238Z,6.17
2023-01-10T16:46:18.724Z,6.16
2023-01-10T16:48:47.407Z,6.15
2023-01-10T16:51:25.794Z,6.15
2023-01-10T16:53:52.492Z,6.15
2023-01-10T16:56:24.331Z,6.15
2023-01-10T16:58:51.920Z,6.14
2023-01-10T17:01:26.486Z,6.13
2023-01-10T17:03:53.340Z,6.12
2023-01-10T17:06:19.833Z,6.12
2023-01-10T17:08:46.642Z,6.13
2023-01-10T17:11:19.292Z,6.12
2023-01-10T17:13:47.168Z,6.12
2023-01-10T17:16:13.745Z,6.12
2023-01-10T17:18:40.165Z,6.12
2023-01-10T17:21:06.733Z,6.12
2023-01-10T17:23:33.539Z,6.11
2023-01-10T17:26:02.818Z,6.13
2023-01-10T17:28:30.208Z,6.14
2023-01-10T17:30:57.453Z,6.12
2023-01-10T17:33:25.308Z,6.12
2023-01-10T17:35:57.428Z,6.12
2023-01-10T17:38:25.547Z,6.12
2023-01-10T17:40:52.750Z,6.16
2023-01-10T17:43:20.692Z,6.16
2023-01-10T17:45:50.265Z,6.16
2023-01-10T17:48:18.419Z,6.17
2023-01-10T17:50:46.484Z,6.18
2023-01-10T17:53:13.358Z,6.20
2023-01-10T17:55:49.729Z,6.20
2023-01-10T17:58:17.721Z,6.20
2023-01-10T18:00:45.878Z,6.23
2023-01-10T18:03:12.600Z,6.23
2023-01-10T18:05:39.858Z,6.24
2023-01-10T18:08:07.940Z,6.25
2023-01-10T18:10:34.897Z,6.23
2023-01-10T18:13:03.502Z,6.24
2023-01-10T18:15:30.425Z,6.26
2023-01-10T18:17:57.739Z,6.28
2023-01-10T18:20:24.199Z,6.27
2023-01-10T18:23:08.955Z,6.29
2023-01-10T18:25:35.285Z,6.32
2023-01-10T18:28:01.646Z,6.34
2023-01-10T18:30:27.972Z,6.34
2023-01-10T18:32:54.920Z,6.35
2023-01-10T18:35:22.343Z,6.36
2023-01-10T18:37:49.122Z,6.39
2023-01-10T18:40:15.547Z,6.39
2023-01-10T18:42:41.950Z,6.42
2023-01-10T18:45:08.884Z,6.42
2023-01-10T18:47:35.276Z,6.44
2023-01-10T18:50:01.846Z,6.45
2023-01-10T18:52:28.204Z,6.47
2023-01-10T18:54:54.724Z,6.48
2023-01-10T18:57:21.107Z,6.49
2023-01-10T18:59:47.572Z,6.51
2023-01-10T19:02:14.779Z,6.53
2023-01-10T19:04:41.281Z,6.55
2023-01-10T19:07:08.512Z,6.55
2023-01-10T19:09:34.965Z,6.59
2023-01-10T19:12:01.444Z,6.61
2023-01-10T19:14:27.853Z,6.63
2023-01-10T19:16:54.172Z,6.64
2023-01-10T19:19:20.488Z,6.65
2023-01-10T19:21:46.834Z,6.67
2023-01-10T19:24:24.487Z,6.69
2023-01-10T19:26:51.924Z,6.71
2023-01-10T19:29:18.462Z,6.73
2023-01-10T19:31:45.437Z,6.75
2023-01-10T19:34:12.497Z,6.77
2023-01-10T19:36:41.420Z,6.78
2023-01-10T19:39:09.377Z,6.79
2023-01-10T19:41:36.908Z,6.81
2023-01-10T19:44:15.467Z,6.84
2023-01-10T19:46:43.957Z,6.84
2023-01-10T19:49:17.096Z,6.87
2023-01-10T19:51:47.617Z,6.89
2023-01-10T19:54:14.093Z,6.91
2023-01-10T19:56:40.653Z,6.92
2023-01-10T19:59:07.574Z,6.93
2023-01-10T20:01:34.094Z,6.95
2023-01-10T20:04:02.577Z,6.96
2023-01-10T20:06:31.527Z,6.98
2023-01-10T20:08:58.033Z,6.99
2023-01-10T20:11:26.383Z,7.02
2023-01-10T20:13:53.265Z,7.02
2023-01-10T20:16:22.423Z,7.03
2023-01-10T20:18:49.622Z,7.05
2023-01-10T20:21:18.514Z,7.09
2023-01-10T20:23:45.415Z,7.09
2023-01-10T20:26:15.652Z,7.11
2023-01-10T20:28:43.599Z,7.13
2023-01-10T20:31:17.237Z,7.13
2023-01-10T20:33:43.750Z,7.15
2023-01-10T20:36:16.535Z,7.16
2023-01-10T20:38:43.294Z,7.19
2023-01-10T20:41:29.718Z,7.21
2023-01-10T20:43:57.705Z,7.23
2023-01-10T20:46:29.200Z,7.22
2023-01-10T20:48:56.406Z,7.24
2023-01-10T20:51:25.269Z,7.28
2023-01-10T20:53:51.665Z,7.29
2023-01-10T20:56:24.503Z,7.30
2023-01-10T20:58:51.693Z,7.31
2023-01-10T21:01:32.952Z,7.32
2023-01-10T21:04:01.825Z,7.35
2023-01-10T21:06:28.377Z,7.34
2023-01-10T21:08:55.035Z,7.34
2023-01-10T21:11:21.750Z,7.35
2023-01-10T21:13:48.213Z,7.35
2023-01-10T21:16:18.151Z,7.38
2023-01-10T21:18:45.453Z,7.38
2023-01-10T21:21:17.813Z,7.41
2023-01-10T21:23:44.299Z,7.42
2023-01-10T21:26:13.338Z,7.43
2023-01-10T21:28:46.651Z,7.44
2023-01-10T21:31:15.721Z,7.46
2023-01-10T21:33:42.555Z,7.49
2023-01-10T21:36:09.308Z,7.49
2023-01-10T21:38:40.437Z,7.50
2023-01-10T21:41:11.241Z,7.50
2023-01-10T21:43:37.797Z,7.51
2023-01-10T21:46:04.512Z,7.54
2023-01-10T21:48:31.004Z,7.56
2023-01-10T21:50:58.024Z,7.55
2023-01-10T21:53:24.667Z,7.59
2023-01-10T21:55:51.118Z,7.60
2023-01-10T21:58:17.488Z,7.61
2023-01-10T22:00:43.950Z,7.63
2023-01-10T22:03:10.392Z,7.63
2023-01-10T22:05:36.793Z,7.64
2023-01-10T22:08:03.727Z,7.63
2023-01-10T22:10:30.208Z,7.65
2023-01-10T22:12:56.616Z,7.66
2023-01-10T22:15:23.015Z,7.67
2023-01-10T22:17:49.428Z,7.69
2023-01-10T22:20:16.851Z,7.71
2023-01-10T22:22:43.416Z,7.72
2023-01-10T22:25:09.892Z,7.75
2023-01-10T22:27:36.269Z,7.75
2023-01-10T22:30:02.664Z,7.77
2023-01-10T22:32:29.045Z,7.79
2023-01-10T22:34:55.480Z,7.82
2023-01-10T22:37:21.881Z,7.85
2023-01-10T22:39:48.681Z,7.86
2023-01-10T22:42:15.232Z,7.87
2023-01-10T22:44:41.570Z,7.89
2023-01-10T22:47:08.975Z,7.91
2023-01-10T22:49:35.395Z,7.93
2023-01-10T22:52:01.878Z,7.95
2023-01-10T22:54:28.225Z,7.97
2023-01-10T22:56:54.557Z,8.00
2023-01-10T22:59:24.046Z,8.01
2023-01-10T23:01:50.393Z,8.02
2023-01-10T23:04:20.064Z,8.08
2023-01-10T23:06:46.495Z,8.09
2023-01-10T23:09:12.860Z,8.07
2023-01-10T23:11:39.171Z,8.08
2023-01-10T23:14:05.628Z,8.09
2023-01-10T23:16:32.637Z,8.10
2023-01-10T23:19:00.179Z,8.13
2023-01-10T23:21:29.153Z,8.15
2023-01-10T23:23:56.296Z,8.23
2023-01-10T23:26:23.234Z,8.25
2023-01-10T23:28:51.060Z,8.29
2023-01-10T23:31:20.398Z,8.30
2023-01-10T23:33:47.521Z,8.33
2023-01-10T23:36:14.189Z,8.36
2023-01-10T23:38:40.539Z,8.40
2023-01-10T23:41:07.402Z,8.43
2023-01-10T23:43:33.766Z,8.45
2023-01-10T23:46:02.049Z,8.47
2023-01-10T23:48:29.404Z,8.47
2023-01-10T23:50:55.868Z,8.48
2023-01-10T23:53:22.242Z,8.51
2023-01-10T23:55:48.763Z,8.51
2023-01-10T23:58:16.792Z,8.52
